createdAt,value
2023-05-10T00:00:40.075Z,9.27
2023-05-10T00:03:07.056Z,9.57
2023-05-10T00:05:33.921Z,9.30
2023-05-10T00:08:00.980Z,9.10
2023-05-10T00:10:27.767Z,9.27
2023-05-10T00:12:54.766Z,9.53
2023-05-10T00:15:21.862Z,9.70
2023-05-10T00:17:48.680Z,9.80
2023-05-10T00:20:15.899Z,9.73
2023-05-10T00:22:43.276Z,9.47
2023-05-10T00:25:11.686Z,10.37
2023-05-10T00:27:38.402Z,10.40
2023-05-10T00:30:05.975Z,10.40
2023-05-10T00:32:32.880Z,10.37
2023-05-10T00:35:00.078Z,9.90
2023-05-10T00:37:27.217Z,10.43
2023-05-10T00:39:54.259Z,11.10
2023-05-10T00:42:21.144Z,10.77
2023-05-10T00:44:48.250Z,10.37
2023-05-10T00:47:15.480Z,10.93
2023-05-10T00:49:42.756Z,10.77
2023-05-10T00:52:10.364Z,10.67
2023-05-10T00:54:37.978Z,10.93
2023-05-10T00:57:05.297Z,11.80
2023-05-10T00:59:32.550Z,10.50
2023-05-10T01:01:59.811Z,11.17
2023-05-10T01:04:26.941Z,11.43
2023-05-10T01:06:54.701Z,11.43
2023-05-10T01:09:26.051Z,11.73
2023-05-10T01:11:53.464Z,11.10
2023-05-10T01:14:21.348Z,11.30
2023-05-10T01:16:50.342Z,10.50
2023-05-10T01:19:24.922Z,11.10
2023-05-10T01:22:08.084Z,11.70
2023-05-10T01:25:02.947Z,12.03
2023-05-10T01:27:57.117Z,11.77
2023-05-10T01:30:45.316Z,12.10
2023-05-10T01:33:27.797Z,12.10
2023-05-10T01:36:04.138Z,12.43
2023-05-10T01:38:54.374Z,12.07
2023-05-10T01:41:48.001Z,12.00
2023-05-10T01:44:50.269Z,11.77
2023-05-10T01:47:26.470Z,10.10
2023-05-10T01:49:57.252Z,11.07
2023-05-10T01:52:29.592Z,10.57
2023-05-10T01:55:25.145Z,10.30
2023-05-10T01:57:59.860Z,9.80
2023-05-10T02:00:28.321Z,8.20
2023-05-10T02:02:56.547Z,10.20
2023-05-10T02:05:24.488Z,7.00
2023-05-10T02:07:52.528Z,7.43
2023-05-10T02:10:21.244Z,7.60
2023-05-10T02:12:50.987Z,7.60
2023-05-10T02:15:22.338Z,7.63
2023-05-10T02:17:49.447Z,5.87
2023-05-10T02:20:19.127Z,5.60
2023-05-10T02:22:50.412Z,5.10
2023-05-10T02:25:20.245Z,5.20
2023-05-10T02:27:48.571Z,5.50
2023-05-10T02:30:17.317Z,5.20
2023-05-10T02:32:45.142Z,5.60
2023-05-10T02:35:13.271Z,6.13
2023-05-10T02:37:41.848Z,6.30
2023-05-10T02:40:09.836Z,7.00
2023-05-10T02:42:38.821Z,7.33
2023-05-10T02:45:12.469Z,7.33
2023-05-10T02:47:40.018Z,8.13
2023-05-10T02:50:07.978Z,8.83
2023-05-10T02:52:44.401Z,10.07
2023-05-10T02:55:14.958Z,10.50
2023-05-10T02:58:00.950Z,8.57
2023-05-10T03:00:28.037Z,7.63
2023-05-10T03:02:55.688Z,7.63
2023-05-10T03:05:22.861Z,7.67
2023-05-10T03:07:49.940Z,7.50
2023-05-10T03:10:17.174Z,7.53
2023-05-10T03:13:03.202Z,8.13
2023-05-10T03:15:39.415Z,7.53
2023-05-10T03:18:22.328Z,8.23
2023-05-10T03:20:52.201Z,8.73
2023-05-10T03:23:18.960Z,11.63
2023-05-10T03:25:48.110Z,14.07
2023-05-10T03:28:16.604Z,14.17
2023-05-10T03:30:44.490Z,14.67
2023-05-10T03:33:11.973Z,15.37
2023-05-10T03:35:38.748Z,15.67
2023-05-10T03:38:05.905Z,16.70
2023-05-10T03:40:33.377Z,10.07
2023-05-10T03:43:00.541Z,9.00
2023-05-10T03:45:28.148Z,7.93
2023-05-10T03:47:55.314Z,8.00
2023-05-10T03:50:22.652Z,6.57
2023-05-10T03:52:49.539Z,6.10
2023-05-10T03:55:17.361Z,5.57
2023-05-10T03:57:44.214Z,6.10
2023-05-10T04:00:11.747Z,5.27
2023-05-10T04:02:38.815Z,5.80
2023-05-10T04:05:06.040Z,4.83
2023-05-10T04:07:32.823Z,5.40
2023-05-10T04:10:00.056Z,4.40
2023-05-10T04:12:26.920Z,3.10
2023-05-10T04:14:53.709Z,2.70
2023-05-10T04:17:21.022Z,2.60
2023-05-10T04:19:47.797Z,2.37
2023-05-10T04:22:15.095Z,1.50
2023-05-10T04:24:41.878Z,1.40
2023-05-10T04:27:08.687Z,1.03
2023-05-10T04:29:35.621Z,1.30
2023-05-10T04:32:02.728Z,1.10
2023-05-10T04:34:29.850Z,1.10
2023-05-10T04:36:56.664Z,1.23
2023-05-10T04:39:23.723Z,1.20
2023-05-10T04:41:51.046Z,1.23
2023-05-10T04:44:17.901Z,1.30
2023-05-10T04:46:44.752Z,1.40
2023-05-10T04:49:11.988Z,1.50
2023-05-10T04:51:38.878Z,1.70
2023-05-10T04:54:06.839Z,2.03
2023-05-10T04:56:34.820Z,2.30
2023-05-10T04:59:01.869Z,2.50
2023-05-10T05:01:28.762Z,2.47
2023-05-10T05:03:55.891Z,2.20
2023-05-10T05:06:22.892Z,2.27
2023-05-10T05:08:50.688Z,2.33
2023-05-10T05:11:18.604Z,2.20
2023-05-10T05:13:45.780Z,2.20
2023-05-10T05:16:12.624Z,2.13
2023-05-10T05:18:40.067Z,2.50
2023-05-10T05:21:19.890Z,2.50
2023-05-10T05:23:47.420Z,2.30
2023-05-10T05:26:14.540Z,2.30
2023-05-10T05:28:41.333Z,2.37
2023-05-10T05:31:09.089Z,2.80
2023-05-10T05:33:36.457Z,2.57
2023-05-10T05:36:07.396Z,3.20
2023-05-10T05:38:34.657Z,2.70
2023-05-10T05:41:01.668Z,2.93
2023-05-10T05:43:28.501Z,2.53
2023-05-10T05:45:56.193Z,2.80
2023-05-10T05:48:23.425Z,2.70
2023-05-10T05:50:50.838Z,2.93
2023-05-10T05:53:18.113Z,2.77
2023-05-10T05:55:55.869Z,2.67
2023-05-10T05:58:24.004Z,2.40
2023-05-10T06:00:51.385Z,2.33
2023-05-10T06:03:18.448Z,2.90
2023-05-10T06:05:45.558Z,2.50
2023-05-10T06:08:12.384Z,2.10
2023-05-10T06:10:39.310Z,2.47
2023-05-10T06:13:06.535Z,2.30
2023-05-10T06:15:33.757Z,2.00
2023-05-10T06:18:00.688Z,2.37
2023-05-10T06:20:27.866Z,2.63
2023-05-10T06:22:55.060Z,2.33
2023-05-10T06:25:22.731Z,2.13
2023-05-10T06:27:53.439Z,2.33
2023-05-10T06:30:21.306Z,2.10
2023-05-10T06:32:48.346Z,2.30
2023-05-10T06:35:15.608Z,2.50
2023-05-10T06:37:42.604Z,2.30
2023-05-10T06:40:10.286Z,2.40
2023-05-10T06:42:37.892Z,2.10
2023-05-10T06:45:05.155Z,2.43
2023-05-10T06:47:32.828Z,2.40
2023-05-10T06:50:00.223Z,1.97
2023-05-10T06:52:27.245Z,1.93
2023-05-10T06:54:54.166Z,2.07
2023-05-10T06:57:31.183Z,2.33
2023-05-10T07:00:01.482Z,2.37
2023-05-10T07:02:28.591Z,2.20
2023-05-10T07:04:55.762Z,2.30
2023-05-10T07:07:23.096Z,2.63
2023-05-10T07:09:51.163Z,2.70
2023-05-10T07:12:18.555Z,3.00
2023-05-10T07:14:45.520Z,3.30
2023-05-10T07:17:12.559Z,3.40
2023-05-10T07:19:39.420Z,3.50
2023-05-10T07:22:06.558Z,4.13
2023-05-10T07:24:34.634Z,4.57
2023-05-10T07:27:02.024Z,4.50
2023-05-10T07:29:29.520Z,4.13
2023-05-10T07:31:58.723Z,4.20
2023-05-10T07:34:27.029Z,5.57
2023-05-10T07:36:54.212Z,5.67
2023-05-10T07:39:27.220Z,5.50
2023-05-10T07:41:55.663Z,5.60
2023-05-10T07:44:22.606Z,5.97
2023-05-10T07:46:50.078Z,5.57
2023-05-10T07:49:17.255Z,6.30
2023-05-10T07:51:44.450Z,7.37
2023-05-10T07:54:12.126Z,7.33
2023-05-10T07:56:40.657Z,7.40
2023-05-10T07:59:09.688Z,7.73
2023-05-10T08:01:38.486Z,7.43
2023-05-10T08:04:05.479Z,8.17
2023-05-10T08:06:32.541Z,8.30
2023-05-10T08:08:59.620Z,8.33
2023-05-10T08:11:26.448Z,8.57
2023-05-10T08:13:54.111Z,9.33
2023-05-10T08:16:21.425Z,9.17
2023-05-10T08:18:50.457Z,9.40
2023-05-10T08:21:17.841Z,9.70
2023-05-10T08:23:50.431Z,10.23
2023-05-10T08:26:17.521Z,10.37
2023-05-10T08:28:44.295Z,10.33
2023-05-10T08:31:11.401Z,11.10
2023-05-10T08:33:38.245Z,10.77
2023-05-10T08:36:05.198Z,11.70
2023-05-10T08:38:32.268Z,11.00
2023-05-10T08:41:00.774Z,11.17
2023-05-10T08:43:32.252Z,10.67
2023-05-10T08:46:04.407Z,10.50
2023-05-10T08:48:32.109Z,11.87
2023-05-10T08:51:01.314Z,11.37
2023-05-10T08:53:29.986Z,10.90
2023-05-10T08:55:58.796Z,11.33
2023-05-10T08:58:26.248Z,12.03
2023-05-10T09:00:53.997Z,12.70
2023-05-10T09:03:21.343Z,12.60
2023-05-10T09:05:49.571Z,11.03
2023-05-10T09:08:17.615Z,13.13
2023-05-10T09:10:48.476Z,12.83
2023-05-10T09:13:16.852Z,14.17
2023-05-10T09:15:46.190Z,15.30
2023-05-10T09:18:13.633Z,14.53
2023-05-10T09:20:41.299Z,14.97
2023-05-10T09:23:08.368Z,15.43
2023-05-10T09:25:36.117Z,16.43
2023-05-10T09:28:03.369Z,16.97
2023-05-10T09:30:32.163Z,16.47
2023-05-10T09:33:00.584Z,17.40
2023-05-10T09:35:33.320Z,16.87
2023-05-10T09:38:06.219Z,15.70
2023-05-10T09:40:33.745Z,16.67
2023-05-10T09:43:05.325Z,15.97
2023-05-10T09:45:35.544Z,15.23
2023-05-10T09:48:04.794Z,15.17
2023-05-10T09:50:32.108Z,14.87
2023-05-10T09:53:00.929Z,13.57
2023-05-10T09:55:41.141Z,13.43
2023-05-10T09:58:11.999Z,14.33
2023-05-10T10:00:43.891Z,13.20
2023-05-10T10:03:18.592Z,12.80
2023-05-10T10:05:46.316Z,12.63
2023-05-10T10:08:15.070Z,12.30
2023-05-10T10:10:42.836Z,11.80
2023-05-10T10:13:09.849Z,10.57
2023-05-10T10:15:37.284Z,10.40
2023-05-10T10:18:06.300Z,10.52
2023-05-10T10:20:33.201Z,10.27
2023-05-10T10:23:00.070Z,11.15
2023-05-10T10:25:27.163Z,10.70
2023-05-10T10:27:54.125Z,10.25
2023-05-10T10:30:45.055Z,8.85
2023-05-10T10:33:33.490Z,8.40
2023-05-10T10:36:03.024Z,8.68
2023-05-10T10:38:48.607Z,8.55
2023-05-10T10:41:37.798Z,8.07
2023-05-10T10:44:24.832Z,7.88
2023-05-10T10:47:15.518Z,9.02
2023-05-10T10:49:42.658Z,7.50
2023-05-10T10:52:31.044Z,7.10
2023-05-10T10:55:04.037Z,7.00
2023-05-10T10:57:56.577Z,5.40
2023-05-10T11:00:31.518Z,5.20
2023-05-10T11:03:09.761Z,5.78
2023-05-10T11:05:38.214Z,6.00
2023-05-10T11:08:34.478Z,5.30
2023-05-10T11:11:04.723Z,5.03
2023-05-10T11:13:42.007Z,5.68
2023-05-10T11:16:24.632Z,5.80
2023-05-10T11:19:04.591Z,5.50
2023-05-10T11:21:32.710Z,5.88
2023-05-10T11:24:01.604Z,5.70
2023-05-10T11:26:33.629Z,5.60
2023-05-10T11:29:02.885Z,5.70
2023-05-10T11:31:30.321Z,6.25
2023-05-10T11:33:59.722Z,5.93
2023-05-10T11:36:33.525Z,6.07
2023-05-10T11:39:01.223Z,5.75
2023-05-10T11:41:29.896Z,6.18
2023-05-10T11:43:57.892Z,5.80
2023-05-10T11:46:29.658Z,5.90
2023-05-10T11:49:10.468Z,6.90
2023-05-10T11:51:37.792Z,7.07
2023-05-10T11:54:10.706Z,7.10
2023-05-10T11:56:39.215Z,7.10
2023-05-10T11:59:06.385Z,6.15
2023-05-10T12:01:33.639Z,5.40
2023-05-10T12:04:02.270Z,5.70
2023-05-10T12:06:32.381Z,6.32
2023-05-10T12:08:59.827Z,5.20
2023-05-10T12:11:28.664Z,5.43
2023-05-10T12:13:57.161Z,8.82
2023-05-10T12:16:26.598Z,8.05
2023-05-10T12:18:58.082Z,8.67
2023-05-10T12:21:25.902Z,9.33
2023-05-10T12:23:54.706Z,10.67
2023-05-10T12:26:27.399Z,11.27
2023-05-10T12:29:13.582Z,11.27
2023-05-10T12:32:00.846Z,11.87
2023-05-10T12:34:38.183Z,11.83
2023-05-10T12:37:05.836Z,12.87
2023-05-10T12:39:43.491Z,12.00
2023-05-10T12:42:11.426Z,11.20
2023-05-10T12:44:38.742Z,11.87
2023-05-10T12:47:05.614Z,11.10
2023-05-10T12:49:33.377Z,10.63
2023-05-10T12:52:00.200Z,12.47
2023-05-10T12:54:26.984Z,12.77
2023-05-10T12:56:54.791Z,12.37
2023-05-10T12:59:21.829Z,11.63
2023-05-10T13:01:48.903Z,13.10
2023-05-10T13:04:16.680Z,12.57
2023-05-10T13:06:43.950Z,12.27
2023-05-10T13:09:11.009Z,13.10
2023-05-10T13:11:37.859Z,12.55
2023-05-10T13:14:04.783Z,12.90
2023-05-10T13:16:32.783Z,11.10
2023-05-10T13:19:00.011Z,10.85
2023-05-10T13:21:27.385Z,11.93
2023-05-10T13:23:54.729Z,11.73
2023-05-10T13:26:22.257Z,11.23
2023-05-10T13:28:50.049Z,12.18
2023-05-10T13:31:17.372Z,11.05
2023-05-10T13:33:44.404Z,11.27
2023-05-10T13:36:11.215Z,12.27
2023-05-10T13:38:38.459Z,8.23
2023-05-10T13:41:05.793Z,8.70
2023-05-10T13:43:32.626Z,7.57
2023-05-10T13:45:59.568Z,9.90
2023-05-10T13:48:26.797Z,9.97
2023-05-10T13:50:53.575Z,10.93
2023-05-10T13:53:20.825Z,12.03
2023-05-10T13:55:48.520Z,11.83
2023-05-10T13:58:15.551Z,12.50
2023-05-10T14:00:42.468Z,11.53
2023-05-10T14:03:12.577Z,13.00
2023-05-10T14:05:39.544Z,12.13
2023-05-10T14:08:06.718Z,12.80
2023-05-10T14:10:33.920Z,14.40
2023-05-10T14:13:01.152Z,13.13
2023-05-10T14:15:27.942Z,12.47
2023-05-10T14:17:54.965Z,13.40
2023-05-10T14:20:21.776Z,13.67
2023-05-10T14:22:48.695Z,13.13
2023-05-10T14:25:18.258Z,12.90
2023-05-10T14:27:45.250Z,12.53
2023-05-10T14:30:12.751Z,13.80
2023-05-10T14:32:39.917Z,13.63
2023-05-10T14:35:07.308Z,13.43
2023-05-10T14:37:34.454Z,13.13
2023-05-10T14:40:01.513Z,14.83
2023-05-10T14:42:29.443Z,14.00
2023-05-10T14:44:56.239Z,14.73
2023-05-10T14:47:23.231Z,13.63
2023-05-10T14:49:50.402Z,12.67
2023-05-10T14:52:18.112Z,13.57
2023-05-10T14:54:45.085Z,13.30
2023-05-10T14:57:12.173Z,14.00
2023-05-10T14:59:39.287Z,14.03
2023-05-10T15:02:07.096Z,15.40
2023-05-10T15:04:34.789Z,13.53
2023-05-10T15:07:02.326Z,15.33
2023-05-10T15:09:29.443Z,14.00
2023-05-10T15:11:56.627Z,14.73
2023-05-10T15:14:24.132Z,14.30
2023-05-10T15:16:51.295Z,14.13
2023-05-10T15:19:18.138Z,15.10
2023-05-10T15:21:45.555Z,13.13
2023-05-10T15:24:12.661Z,13.47
2023-05-10T15:26:39.478Z,13.40
2023-05-10T15:29:06.331Z,12.93
2023-05-10T15:31:36.295Z,13.87
2023-05-10T15:34:03.533Z,13.53
2023-05-10T15:36:30.474Z,13.98
2023-05-10T15:38:57.350Z,14.17
2023-05-10T15:41:24.691Z,14.07
2023-05-10T15:43:51.953Z,14.10
2023-05-10T15:46:19.385Z,13.55
2023-05-10T15:48:46.635Z,13.87
2023-05-10T15:51:13.422Z,14.80
2023-05-10T15:53:49.427Z,12.83
2023-05-10T15:56:20.212Z,14.90
2023-05-10T15:58:47.595Z,15.50
2023-05-10T16:01:14.555Z,14.30
2023-05-10T16:03:41.391Z,15.93
2023-05-10T16:06:08.632Z,14.97
2023-05-10T16:08:35.477Z,14.13
2023-05-10T16:11:02.828Z,14.53
2023-05-10T16:13:30.477Z,14.53
2023-05-10T16:16:00.298Z,14.13
2023-05-10T16:18:27.894Z,13.47
2023-05-10T16:20:55.280Z,14.07
2023-05-10T16:23:22.159Z,14.40
2023-05-10T16:25:48.929Z,15.60
2023-05-10T16:28:15.886Z,15.07
2023-05-10T16:30:42.878Z,16.10
2023-05-10T16:33:09.971Z,14.50
2023-05-10T16:35:37.048Z,13.97
2023-05-10T16:38:04.473Z,13.80
2023-05-10T16:40:32.579Z,14.97
2023-05-10T16:42:59.423Z,14.37
2023-05-10T16:45:26.922Z,13.97
2023-05-10T16:47:54.162Z,13.07
2023-05-10T16:50:21.319Z,11.63
2023-05-10T16:52:48.345Z,11.33
2023-05-10T16:55:15.813Z,11.10
2023-05-10T16:57:42.787Z,10.87
2023-05-10T17:00:12.154Z,12.10
2023-05-10T17:02:39.435Z,11.73
2023-05-10T17:05:06.765Z,12.60
2023-05-10T17:07:33.808Z,12.40
2023-05-10T17:10:00.817Z,12.10
2023-05-10T17:12:28.182Z,11.63
2023-05-10T17:14:55.653Z,11.80
2023-05-10T17:17:23.593Z,11.30
2023-05-10T17:19:50.527Z,10.97
2023-05-10T17:22:17.622Z,11.70
2023-05-10T17:24:45.443Z,12.87
2023-05-10T17:27:12.349Z,12.10
2023-05-10T17:29:39.732Z,10.60
2023-05-10T17:32:09.088Z,10.17
2023-05-10T17:34:37.629Z,9.17
2023-05-10T17:37:05.613Z,8.97
2023-05-10T17:39:32.505Z,9.40
2023-05-10T17:41:59.407Z,9.97
2023-05-10T17:44:26.405Z,9.37
2023-05-10T17:46:53.279Z,9.57
2023-05-10T17:49:20.034Z,11.03
2023-05-10T17:51:50.193Z,9.50
2023-05-10T17:54:16.983Z,8.87
2023-05-10T17:56:43.867Z,9.83
2023-05-10T17:59:10.909Z,8.47
2023-05-10T18:01:37.831Z,9.77
2023-05-10T18:04:04.733Z,9.13
2023-05-10T18:06:35.819Z,14.87
2023-05-10T18:09:04.268Z,23.43
2023-05-10T18:11:31.400Z,14.33
2023-05-10T18:13:58.819Z,14.03
2023-05-10T18:16:25.675Z,11.17
2023-05-10T18:18:52.926Z,11.53
2023-05-10T18:21:23.071Z,9.70
2023-05-10T18:23:50.503Z,11.17
2023-05-10T18:26:18.177Z,12.10
2023-05-10T18:28:45.128Z,11.97
2023-05-10T18:31:13.315Z,10.37
2023-05-10T18:33:40.273Z,8.67
2023-05-10T18:36:10.371Z,8.90
2023-05-10T18:38:37.894Z,8.43
2023-05-10T18:41:07.243Z,8.87
2023-05-10T18:43:34.581Z,8.77
2023-05-10T18:46:01.790Z,8.50
2023-05-10T18:48:29.053Z,7.67
2023-05-10T18:50:56.525Z,8.53
2023-05-10T18:53:23.399Z,7.67
2023-05-10T18:55:58.592Z,7.97
2023-05-10T18:58:28.738Z,8.13
2023-05-10T19:00:55.954Z,9.47
2023-05-10T19:03:23.073Z,9.40
2023-05-10T19:05:49.969Z,8.90
2023-05-10T19:08:17.342Z,8.63
2023-05-10T19:10:44.529Z,8.00
2023-05-10T19:13:11.349Z,8.87
2023-05-10T19:15:38.282Z,7.83
2023-05-10T19:18:07.319Z,8.57
2023-05-10T19:20:35.232Z,7.47
2023-05-10T19:23:09.747Z,8.83
2023-05-10T19:25:37.375Z,9.20
2023-05-10T19:28:04.335Z,8.67
2023-05-10T19:30:32.114Z,8.43
2023-05-10T19:32:59.438Z,8.70
2023-05-10T19:35:26.276Z,8.33
2023-05-10T19:37:53.918Z,9.60
2023-05-10T19:40:21.267Z,9.10
2023-05-10T19:42:48.901Z,9.00
2023-05-10T19:45:16.630Z,9.90
2023-05-10T19:47:44.241Z,10.10
2023-05-10T19:50:12.772Z,10.00
2023-05-10T19:52:40.230Z,10.20
2023-05-10T19:55:08.264Z,9.00
2023-05-10T19:57:35.222Z,9.57
2023-05-10T20:00:02.402Z,9.63
2023-05-10T20:02:29.258Z,10.43
2023-05-10T20:04:56.323Z,10.13
2023-05-10T20:07:23.386Z,9.87
2023-05-10T20:09:50.634Z,9.37
2023-05-10T20:12:17.989Z,10.37
2023-05-10T20:14:44.998Z,10.20
2023-05-10T20:17:12.351Z,10.07
2023-05-10T20:19:39.608Z,10.90
2023-05-10T20:22:09.483Z,10.23
2023-05-10T20:24:36.584Z,10.73
2023-05-10T20:27:04.636Z,10.37
2023-05-10T20:29:32.911Z,10.10
2023-05-10T20:31:59.700Z,10.47
2023-05-10T20:34:26.983Z,10.43
2023-05-10T20:36:54.231Z,11.27
2023-05-10T20:39:21.516Z,12.87
2023-05-10T20:41:49.534Z,11.73
2023-05-10T20:44:17.111Z,12.87
2023-05-10T20:46:45.233Z,12.33
2023-05-10T20:49:12.100Z,12.73
2023-05-10T20:51:39.178Z,13.27
2023-05-10T20:54:06.294Z,13.63
2023-05-10T20:56:33.982Z,14.17
2023-05-10T20:59:01.095Z,14.13
2023-05-10T21:01:28.622Z,15.23
2023-05-10T21:03:55.723Z,15.03
2023-05-10T21:06:22.771Z,17.33
2023-05-10T21:08:49.637Z,18.40
2023-05-10T21:11:16.454Z,18.30
2023-05-10T21:13:43.522Z,17.17
2023-05-10T21:16:10.379Z,18.67
2023-05-10T21:18:37.399Z,18.60
2023-05-10T21:21:04.233Z,19.00
2023-05-10T21:23:32.477Z,16.10
2023-05-10T21:26:03.961Z,15.97
2023-05-10T21:28:30.866Z,15.90
2023-05-10T21:30:58.149Z,16.30
2023-05-10T21:33:25.521Z,16.73
2023-05-10T21:35:52.782Z,15.93
2023-05-10T21:38:19.586Z,16.60
2023-05-10T21:40:46.694Z,15.63
2023-05-10T21:43:13.552Z,15.53
2023-05-10T21:45:40.818Z,16.07
2023-05-10T21:48:10.859Z,15.13
2023-05-10T21:50:37.816Z,16.27
2023-05-10T21:53:04.975Z,15.27
2023-05-10T21:55:31.886Z,16.27
2023-05-10T21:57:58.973Z,16.83
2023-05-10T22:00:26.710Z,16.43
2023-05-10T22:02:53.977Z,16.43
2023-05-10T22:05:24.001Z,16.87
2023-05-10T22:07:51.008Z,16.43
2023-05-10T22:10:18.280Z,15.70
2023-05-10T22:12:45.327Z,16.00
2023-05-10T22:15:12.702Z,16.23
2023-05-10T22:17:40.427Z,15.80
2023-05-10T22:20:09.303Z,16.33
2023-05-10T22:22:37.335Z,16.47
2023-05-10T22:25:08.045Z,15.90
2023-05-10T22:27:35.170Z,16.37
2023-05-10T22:30:05.400Z,16.70
2023-05-10T22:32:35.168Z,18.37
2023-05-10T22:35:02.833Z,18.00
2023-05-10T22:37:29.685Z,18.23
2023-05-10T22:39:57.725Z,17.37
2023-05-10T22:42:24.503Z,18.17
2023-05-10T22:44:51.511Z,18.47
2023-05-10T22:47:18.474Z,18.63
2023-05-10T22:49:45.334Z,19.60
2023-05-10T22:52:12.438Z,20.70
2023-05-10T22:54:39.280Z,21.00
2023-05-10T22:57:06.032Z,21.40
2023-05-10T22:59:33.363Z,22.33
2023-05-10T23:02:00.632Z,22.00
2023-05-10T23:04:27.503Z,22.37
2023-05-10T23:06:54.490Z,22.07
2023-05-10T23:09:21.548Z,23.73
2023-05-10T23:11:48.623Z,24.37
2023-05-10T23:14:15.661Z,23.70
2023-05-10T23:16:42.535Z,24.63
2023-05-10T23:19:09.359Z,26.93
2023-05-10T23:21:36.337Z,25.93
2023-05-10T23:24:03.172Z,26.97
2023-05-10T23:26:30.250Z,26.70
2023-05-10T23:28:57.058Z,27.50
2023-05-10T23:31:24.094Z,27.60
2023-05-10T23:33:50.866Z,27.37
2023-05-10T23:36:17.711Z,26.60
2023-05-10T23:38:44.730Z,27.60
2023-05-10T23:41:11.504Z,27.77
2023-05-10T23:43:38.340Z,27.90
2023-05-10T23:46:06.518Z,27.47
2023-05-10T23:48:33.430Z,27.40
2023-05-10T23:51:00.268Z,28.57
2023-05-10T23:53:27.293Z,27.93
2023-05-10T23:55:54.069Z,26.90
2023-05-10T23:58:22.049Z,26.57
